WON1323 WAFF-WALL
Flight info
| Callsign | WON1323 |
|---|---|
| Flight time | 0h 50m |
| Altitude | 16000 |
| Route | IKEMU |
| Aircraft | AT76/M-SDFGIRY/S |
Departure
| Time | 2026-05-07 04:45 |
|---|---|
| Airport | Mutiara - SIS Al-Jufrie Airport (WAFF) |
Arrival
| Time | 2026-05-07 05:35 |
|---|---|
| Airport | Sultan Aji Muhammad Sulaiman Sepinggan International Airport (WALL) |
| Time | Latitude | Longitude | Altitude | Speed | Heading |
|---|---|---|---|---|---|
| 2026-05-07 04:17 | -0.91732 | 119.90661 | 238 ft | 0 kts | 245° |
| 2026-05-07 04:35 | -0.91731 | 119.90665 | 241 ft | 2 kts | 246° |
| 2026-05-07 04:35 | -0.91725 | 119.90677 | 244 ft | 2 kts | 247° |
| 2026-05-07 04:35 | -0.91720 | 119.90690 | 239 ft | 2 kts | 246° |
| 2026-05-07 04:36 | -0.91715 | 119.90701 | 243 ft | 1 kts | 238° |
| 2026-05-07 04:36 | -0.91711 | 119.90706 | 242 ft | 1 kts | 212° |
| 2026-05-07 04:36 | -0.91706 | 119.90709 | 241 ft | 1 kts | 177° |
| 2026-05-07 04:36 | -0.91701 | 119.90708 | 242 ft | 1 kts | 162° |
| 2026-05-07 04:37 | -0.91696 | 119.90707 | 240 ft | 1 kts | 157° |
| 2026-05-07 04:37 | -0.91693 | 119.90705 | 240 ft | 0 kts | 156° |
| 2026-05-07 04:39 | -0.91700 | 119.90709 | 241 ft | 2 kts | 155° |
| 2026-05-07 04:39 | -0.91731 | 119.90723 | 239 ft | 7 kts | 154° |
| 2026-05-07 04:39 | -0.91782 | 119.90747 | 240 ft | 9 kts | 156° |
| 2026-05-07 04:40 | -0.91846 | 119.90776 | 241 ft | 11 kts | 156° |
| 2026-05-07 04:40 | -0.91914 | 119.90810 | 241 ft | 10 kts | 129° |
| 2026-05-07 04:40 | -0.91902 | 119.90872 | 243 ft | 9 kts | 63° |
| 2026-05-07 04:40 | -0.91875 | 119.90924 | 244 ft | 8 kts | 63° |
| 2026-05-07 04:41 | -0.91872 | 119.90970 | 242 ft | 7 kts | 133° |
| 2026-05-07 04:41 | -0.91925 | 119.90996 | 243 ft | 10 kts | 158° |
| 2026-05-07 04:41 | -0.91998 | 119.91027 | 241 ft | 12 kts | 156° |
| 2026-05-07 04:41 | -0.92078 | 119.91065 | 239 ft | 13 kts | 154° |
| 2026-05-07 04:42 | -0.92163 | 119.91106 | 239 ft | 14 kts | 154° |
| 2026-05-07 04:42 | -0.92256 | 119.91146 | 238 ft | 15 kts | 158° |
| 2026-05-07 04:42 | -0.92351 | 119.91190 | 233 ft | 15 kts | 153° |
| 2026-05-07 04:42 | -0.92443 | 119.91236 | 233 ft | 14 kts | 158° |
| 2026-05-07 04:43 | -0.92537 | 119.91273 | 234 ft | 15 kts | 156° |
| 2026-05-07 04:43 | -0.92636 | 119.91318 | 239 ft | 16 kts | 155° |
| 2026-05-07 04:43 | -0.92705 | 119.91369 | 240 ft | 6 kts | 185° |
| 2026-05-07 04:43 | -0.92707 | 119.91349 | 240 ft | 2 kts | 304° |
| 2026-05-07 04:44 | -0.92701 | 119.91347 | 240 ft | 2 kts | 335° |
| 2026-05-07 04:44 | -0.92509 | 119.91261 | 235 ft | 61 kts | 336° |
| 2026-05-07 04:44 | -0.91956 | 119.91012 | 242 ft | 113 kts | 335° |
| 2026-05-07 04:44 | -0.91146 | 119.90637 | 463 ft | 133 kts | 335° |
| 2026-05-07 04:45 | -0.90289 | 119.90230 | 920 ft | 136 kts | 333° |
| 2026-05-07 04:45 | -0.89402 | 119.89816 | 1159 ft | 151 kts | 335° |
| 2026-05-07 04:45 | -0.88358 | 119.89367 | 1158 ft | 175 kts | 336° |
| 2026-05-07 04:45 | -0.87241 | 119.88881 | 1520 ft | 175 kts | 336° |
| 2026-05-07 04:46 | -0.86119 | 119.88385 | 1893 ft | 177 kts | 336° |
| 2026-05-07 04:46 | -0.84989 | 119.87889 | 2272 ft | 178 kts | 336° |
| 2026-05-07 04:46 | -0.83855 | 119.87384 | 2607 ft | 179 kts | 336° |
| 2026-05-07 04:46 | -0.82711 | 119.86875 | 2915 ft | 180 kts | 336° |
| 2026-05-07 04:47 | -0.81560 | 119.86362 | 3239 ft | 181 kts | 336° |
| 2026-05-07 04:47 | -0.80404 | 119.85847 | 3535 ft | 183 kts | 336° |
| 2026-05-07 04:47 | -0.79253 | 119.85334 | 3828 ft | 184 kts | 336° |
| 2026-05-07 04:47 | -0.78080 | 119.84811 | 4119 ft | 186 kts | 336° |
| 2026-05-07 04:48 | -0.76881 | 119.84276 | 4421 ft | 187 kts | 336° |
| 2026-05-07 04:48 | -0.75705 | 119.83751 | 4704 ft | 188 kts | 336° |
| 2026-05-07 04:48 | -0.74566 | 119.83107 | 4957 ft | 191 kts | 313° |
| 2026-05-07 04:48 | -0.74088 | 119.81901 | 5205 ft | 191 kts | 270° |
| 2026-05-07 04:49 | -0.74205 | 119.80572 | 5431 ft | 193 kts | 260° |
| 2026-05-07 04:49 | -0.74516 | 119.79264 | 5715 ft | 194 kts | 252° |
| 2026-05-07 04:49 | -0.74971 | 119.77993 | 5996 ft | 194 kts | 247° |
| 2026-05-07 04:49 | -0.75493 | 119.76743 | 6276 ft | 196 kts | 246° |
| 2026-05-07 04:50 | -0.76024 | 119.75491 | 6543 ft | 196 kts | 246° |
| 2026-05-07 04:50 | -0.76561 | 119.74235 | 6807 ft | 197 kts | 246° |
| 2026-05-07 04:50 | -0.77102 | 119.72938 | 6894 ft | 208 kts | 247° |
| 2026-05-07 04:50 | -0.77653 | 119.71560 | 6970 ft | 219 kts | 247° |
| 2026-05-07 04:51 | -0.78233 | 119.70107 | 6969 ft | 230 kts | 247° |
| 2026-05-07 04:51 | -0.78833 | 119.68601 | 6963 ft | 237 kts | 248° |
| 2026-05-07 04:51 | -0.79452 | 119.67059 | 6975 ft | 242 kts | 248° |
| 2026-05-07 04:51 | -0.80087 | 119.65488 | 7023 ft | 245 kts | 247° |
| 2026-05-07 04:52 | -0.80675 | 119.63989 | 7663 ft | 218 kts | 248° |
| 2026-05-07 04:52 | -0.81200 | 119.62660 | 8382 ft | 192 kts | 248° |
| 2026-05-07 04:52 | -0.81662 | 119.61514 | 9079 ft | 168 kts | 248° |
| 2026-05-07 04:52 | -0.82095 | 119.60448 | 9453 ft | 166 kts | 247° |
| 2026-05-07 04:53 | -0.82547 | 119.59321 | 9427 ft | 188 kts | 249° |
| 2026-05-07 04:53 | -0.83026 | 119.58040 | 9499 ft | 204 kts | 250° |
| 2026-05-07 04:53 | -0.83520 | 119.56701 | 9811 ft | 206 kts | 249° |
| 2026-05-07 04:53 | -0.84038 | 119.55360 | 10111 ft | 207 kts | 248° |
| 2026-05-07 04:54 | -0.84567 | 119.54016 | 10341 ft | 209 kts | 249° |
| 2026-05-07 04:54 | -0.85102 | 119.52668 | 10589 ft | 209 kts | 248° |
| 2026-05-07 04:54 | -0.85643 | 119.51315 | 10815 ft | 210 kts | 248° |
| 2026-05-07 04:54 | -0.86194 | 119.49962 | 11035 ft | 211 kts | 248° |
| 2026-05-07 04:55 | -0.86749 | 119.48605 | 11242 ft | 212 kts | 248° |
| 2026-05-07 04:55 | -0.87311 | 119.47240 | 11457 ft | 212 kts | 248° |
| 2026-05-07 04:55 | -0.87860 | 119.45869 | 11675 ft | 213 kts | 248° |
| 2026-05-07 04:55 | -0.88409 | 119.44491 | 11881 ft | 214 kts | 249° |
| 2026-05-07 04:56 | -0.88957 | 119.43111 | 12099 ft | 214 kts | 249° |
| 2026-05-07 04:56 | -0.89509 | 119.41723 | 12303 ft | 215 kts | 249° |
| 2026-05-07 04:56 | -0.90063 | 119.40329 | 12501 ft | 216 kts | 249° |
| 2026-05-07 04:56 | -0.90617 | 119.38931 | 12703 ft | 217 kts | 249° |
| 2026-05-07 04:57 | -0.91175 | 119.37525 | 12890 ft | 218 kts | 249° |
| 2026-05-07 04:57 | -0.91545 | 119.36593 | 13024 ft | 218 kts | 249° |
| 2026-05-07 04:57 | -0.92289 | 119.34723 | 13281 ft | 219 kts | 249° |
| 2026-05-07 04:57 | -0.92851 | 119.33305 | 13475 ft | 220 kts | 249° |
| 2026-05-07 04:58 | -0.93226 | 119.32364 | 13582 ft | 220 kts | 249° |
| 2026-05-07 04:58 | -0.93790 | 119.30941 | 13757 ft | 220 kts | 249° |
| 2026-05-07 04:58 | -0.94548 | 119.29030 | 13961 ft | 222 kts | 249° |
| 2026-05-07 04:58 | -0.95119 | 119.27596 | 14114 ft | 222 kts | 249° |
| 2026-05-07 04:59 | -0.95499 | 119.26644 | 14212 ft | 223 kts | 249° |
| 2026-05-07 04:59 | -0.96072 | 119.25203 | 14359 ft | 223 kts | 249° |
| 2026-05-07 04:59 | -0.96648 | 119.23762 | 14508 ft | 224 kts | 249° |
| 2026-05-07 04:59 | -0.97132 | 119.22282 | 14638 ft | 224 kts | 257° |
| 2026-05-07 05:00 | -0.97466 | 119.20757 | 14784 ft | 225 kts | 259° |
| 2026-05-07 05:00 | -0.97779 | 119.19225 | 14930 ft | 225 kts | 259° |
| 2026-05-07 05:00 | -0.98112 | 119.17692 | 15063 ft | 226 kts | 258° |
| 2026-05-07 05:00 | -0.98475 | 119.16161 | 15195 ft | 227 kts | 257° |
| 2026-05-07 05:01 | -0.98852 | 119.14627 | 15334 ft | 227 kts | 256° |
| 2026-05-07 05:01 | -0.99234 | 119.13092 | 15454 ft | 228 kts | 257° |
| 2026-05-07 05:01 | -0.99609 | 119.11570 | 15576 ft | 229 kts | 257° |
| 2026-05-07 05:01 | -0.99990 | 119.10025 | 15706 ft | 229 kts | 256° |
| 2026-05-07 05:02 | -1.00378 | 119.08470 | 15770 ft | 233 kts | 256° |
| 2026-05-07 05:02 | -1.00784 | 119.06888 | 15806 ft | 237 kts | 256° |
| 2026-05-07 05:02 | -1.01199 | 119.05276 | 15816 ft | 242 kts | 256° |
| 2026-05-07 05:02 | -1.01619 | 119.03637 | 15824 ft | 246 kts | 256° |
| 2026-05-07 05:03 | -1.02036 | 119.01964 | 15827 ft | 249 kts | 257° |
| 2026-05-07 05:03 | -1.02454 | 119.00271 | 15830 ft | 252 kts | 256° |
| 2026-05-07 05:03 | -1.02877 | 118.98563 | 15829 ft | 255 kts | 256° |
| 2026-05-07 05:03 | -1.03302 | 118.96840 | 15829 ft | 256 kts | 256° |
| 2026-05-07 05:04 | -1.03733 | 118.95102 | 15829 ft | 258 kts | 257° |
| 2026-05-07 05:04 | -1.04158 | 118.93378 | 15826 ft | 259 kts | 256° |
| 2026-05-07 05:04 | -1.04593 | 118.91620 | 15826 ft | 260 kts | 257° |
| 2026-05-07 05:04 | -1.05028 | 118.89863 | 15827 ft | 261 kts | 257° |
| 2026-05-07 05:05 | -1.05464 | 118.88097 | 15825 ft | 262 kts | 256° |
| 2026-05-07 05:05 | -1.05899 | 118.86329 | 15828 ft | 262 kts | 256° |
| 2026-05-07 05:05 | -1.06338 | 118.84556 | 15825 ft | 263 kts | 256° |
| 2026-05-07 05:05 | -1.06776 | 118.82781 | 15825 ft | 263 kts | 256° |
| 2026-05-07 05:06 | -1.07215 | 118.81005 | 15823 ft | 264 kts | 256° |
| 2026-05-07 05:06 | -1.07654 | 118.79228 | 15826 ft | 264 kts | 256° |
| 2026-05-07 05:06 | -1.08094 | 118.77447 | 15827 ft | 264 kts | 256° |
| 2026-05-07 05:06 | -1.08534 | 118.75666 | 15825 ft | 264 kts | 256° |
| 2026-05-07 05:07 | -1.08974 | 118.73885 | 15827 ft | 264 kts | 256° |
| 2026-05-07 05:07 | -1.09417 | 118.72101 | 15827 ft | 265 kts | 256° |
| 2026-05-07 05:07 | -1.09866 | 118.70318 | 15821 ft | 265 kts | 256° |
| 2026-05-07 05:07 | -1.10318 | 118.68536 | 15824 ft | 265 kts | 256° |
| 2026-05-07 05:08 | -1.10746 | 118.66745 | 15826 ft | 265 kts | 257° |
| 2026-05-07 05:08 | -1.11181 | 118.64957 | 15827 ft | 265 kts | 257° |
| 2026-05-07 05:08 | -1.11622 | 118.63168 | 15825 ft | 265 kts | 256° |
| 2026-05-07 05:08 | -1.12062 | 118.61380 | 15831 ft | 265 kts | 256° |
| 2026-05-07 05:09 | -1.12503 | 118.59591 | 15831 ft | 265 kts | 257° |
| 2026-05-07 05:09 | -1.12941 | 118.57821 | 15829 ft | 265 kts | 256° |
| 2026-05-07 05:09 | -1.13384 | 118.56031 | 15829 ft | 265 kts | 256° |
| 2026-05-07 05:09 | -1.13828 | 118.54240 | 15828 ft | 265 kts | 256° |
| 2026-05-07 05:10 | -1.14255 | 118.52448 | 15830 ft | 264 kts | 260° |
| 2026-05-07 05:10 | -1.14499 | 118.50629 | 15829 ft | 265 kts | 265° |
| 2026-05-07 05:10 | -1.14676 | 118.48791 | 15830 ft | 265 kts | 265° |
| 2026-05-07 05:10 | -1.14864 | 118.46960 | 15830 ft | 265 kts | 264° |
| 2026-05-07 05:11 | -1.15088 | 118.45127 | 15829 ft | 265 kts | 263° |
| 2026-05-07 05:11 | -1.15323 | 118.43296 | 15828 ft | 265 kts | 263° |
| 2026-05-07 05:11 | -1.15556 | 118.41466 | 15829 ft | 265 kts | 263° |
| 2026-05-07 05:11 | -1.15776 | 118.39637 | 15828 ft | 265 kts | 264° |
| 2026-05-07 05:12 | -1.15993 | 118.37809 | 15828 ft | 265 kts | 264° |
| 2026-05-07 05:12 | -1.16209 | 118.35976 | 15829 ft | 265 kts | 264° |
| 2026-05-07 05:12 | -1.16425 | 118.34148 | 15830 ft | 265 kts | 264° |
| 2026-05-07 05:12 | -1.16640 | 118.32314 | 15830 ft | 265 kts | 264° |
| 2026-05-07 05:13 | -1.16854 | 118.30484 | 15830 ft | 265 kts | 264° |
| 2026-05-07 05:13 | -1.17071 | 118.28649 | 15825 ft | 265 kts | 264° |
| 2026-05-07 05:13 | -1.17288 | 118.26819 | 15828 ft | 265 kts | 264° |
| 2026-05-07 05:13 | -1.17503 | 118.24987 | 15827 ft | 265 kts | 264° |
| 2026-05-07 05:14 | -1.17719 | 118.23156 | 15827 ft | 265 kts | 264° |
| 2026-05-07 05:14 | -1.17935 | 118.21326 | 15826 ft | 265 kts | 263° |
| 2026-05-07 05:14 | -1.18149 | 118.19494 | 15826 ft | 265 kts | 264° |
| 2026-05-07 05:14 | -1.18364 | 118.17664 | 15828 ft | 265 kts | 264° |
| 2026-05-07 05:15 | -1.18580 | 118.15832 | 15827 ft | 265 kts | 264° |
| 2026-05-07 05:15 | -1.18793 | 118.14025 | 15824 ft | 265 kts | 264° |
| 2026-05-07 05:15 | -1.19009 | 118.12197 | 15826 ft | 265 kts | 264° |
| 2026-05-07 05:15 | -1.19226 | 118.10366 | 15828 ft | 265 kts | 264° |
| 2026-05-07 05:16 | -1.19440 | 118.08535 | 15827 ft | 265 kts | 264° |
| 2026-05-07 05:16 | -1.19656 | 118.06702 | 15824 ft | 265 kts | 264° |
| 2026-05-07 05:16 | -1.19871 | 118.04866 | 15825 ft | 265 kts | 264° |
| 2026-05-07 05:16 | -1.20086 | 118.03036 | 15825 ft | 265 kts | 264° |
| 2026-05-07 05:17 | -1.20304 | 118.01203 | 15824 ft | 265 kts | 264° |
| 2026-05-07 05:17 | -1.20518 | 117.99373 | 15824 ft | 265 kts | 264° |
| 2026-05-07 05:17 | -1.20731 | 117.97563 | 15821 ft | 265 kts | 264° |
| 2026-05-07 05:17 | -1.20948 | 117.95709 | 15823 ft | 265 kts | 264° |
| 2026-05-07 05:18 | -1.21102 | 117.93904 | 15825 ft | 264 kts | 270° |
| 2026-05-07 05:18 | -1.21029 | 117.92071 | 15824 ft | 264 kts | 274° |
| 2026-05-07 05:18 | -1.20896 | 117.90239 | 15824 ft | 265 kts | 275° |
| 2026-05-07 05:18 | -1.20781 | 117.88401 | 15825 ft | 265 kts | 273° |
| 2026-05-07 05:19 | -1.20720 | 117.86563 | 15824 ft | 265 kts | 271° |
| 2026-05-07 05:19 | -1.20686 | 117.84721 | 15819 ft | 265 kts | 271° |
| 2026-05-07 05:19 | -1.20646 | 117.82877 | 15820 ft | 265 kts | 272° |
| 2026-05-07 05:19 | -1.20603 | 117.81039 | 15822 ft | 265 kts | 272° |
| 2026-05-07 05:20 | -1.20562 | 117.79201 | 15824 ft | 265 kts | 272° |
| 2026-05-07 05:20 | -1.20520 | 117.77361 | 15822 ft | 265 kts | 272° |
| 2026-05-07 05:20 | -1.20476 | 117.75518 | 15820 ft | 265 kts | 272° |
| 2026-05-07 05:20 | -1.20435 | 117.73703 | 15819 ft | 265 kts | 272° |
| 2026-05-07 05:21 | -1.20390 | 117.71859 | 15821 ft | 265 kts | 272° |
| 2026-05-07 05:21 | -1.20304 | 117.68137 | 15423 ft | 273 kts | 272° |
| 2026-05-07 05:21 | -1.20260 | 117.66227 | 15070 ft | 277 kts | 272° |
| 2026-05-07 05:22 | -1.20215 | 117.64291 | 14716 ft | 280 kts | 272° |
| 2026-05-07 05:22 | -1.20171 | 117.62335 | 14361 ft | 282 kts | 272° |
| 2026-05-07 05:22 | -1.20124 | 117.60367 | 14010 ft | 284 kts | 272° |
| 2026-05-07 05:22 | -1.20079 | 117.58391 | 13657 ft | 285 kts | 272° |
| 2026-05-07 05:23 | -1.20033 | 117.56412 | 13258 ft | 285 kts | 272° |
| 2026-05-07 05:23 | -1.19986 | 117.54429 | 12863 ft | 285 kts | 272° |
| 2026-05-07 05:23 | -1.19943 | 117.52453 | 12474 ft | 284 kts | 272° |
| 2026-05-07 05:23 | -1.19898 | 117.50481 | 12100 ft | 283 kts | 272° |
| 2026-05-07 05:24 | -1.19852 | 117.48518 | 11713 ft | 282 kts | 272° |
| 2026-05-07 05:24 | -1.19806 | 117.46565 | 11350 ft | 281 kts | 272° |
| 2026-05-07 05:24 | -1.19760 | 117.44616 | 10984 ft | 280 kts | 272° |
| 2026-05-07 05:24 | -1.19713 | 117.42673 | 10627 ft | 279 kts | 272° |
| 2026-05-07 05:25 | -1.19671 | 117.40733 | 10269 ft | 278 kts | 272° |
| 2026-05-07 05:25 | -1.19625 | 117.38808 | 9921 ft | 276 kts | 272° |
| 2026-05-07 05:25 | -1.19579 | 117.36902 | 9558 ft | 273 kts | 272° |
| 2026-05-07 05:25 | -1.19539 | 117.35040 | 9184 ft | 270 kts | 272° |
| 2026-05-07 05:26 | -1.19495 | 117.33173 | 8811 ft | 268 kts | 272° |
| 2026-05-07 05:26 | -1.19452 | 117.31322 | 8444 ft | 265 kts | 272° |
| 2026-05-07 05:26 | -1.19409 | 117.29487 | 8086 ft | 263 kts | 272° |
| 2026-05-07 05:26 | -1.19367 | 117.27664 | 7735 ft | 261 kts | 272° |
| 2026-05-07 05:27 | -1.19329 | 117.25859 | 7387 ft | 259 kts | 272° |
| 2026-05-07 05:27 | -1.19289 | 117.24061 | 7047 ft | 257 kts | 272° |
| 2026-05-07 05:27 | -1.19250 | 117.22296 | 6715 ft | 251 kts | 272° |
| 2026-05-07 05:27 | -1.19215 | 117.20564 | 6387 ft | 246 kts | 272° |
| 2026-05-07 05:28 | -1.19183 | 117.18865 | 6055 ft | 243 kts | 272° |
| 2026-05-07 05:28 | -1.19150 | 117.17197 | 5709 ft | 239 kts | 272° |
| 2026-05-07 05:28 | -1.19118 | 117.15536 | 5383 ft | 237 kts | 272° |
| 2026-05-07 05:28 | -1.19087 | 117.13898 | 5048 ft | 234 kts | 272° |
| 2026-05-07 05:29 | -1.19057 | 117.12281 | 4727 ft | 231 kts | 272° |
| 2026-05-07 05:29 | -1.19021 | 117.10684 | 4409 ft | 229 kts | 272° |
| 2026-05-07 05:29 | -1.18986 | 117.09104 | 4080 ft | 226 kts | 272° |
| 2026-05-07 05:29 | -1.19025 | 117.07563 | 3757 ft | 213 kts | 258° |
| 2026-05-07 05:30 | -1.19534 | 117.06262 | 3473 ft | 194 kts | 246° |
| 2026-05-07 05:30 | -1.20102 | 117.05059 | 3040 ft | 191 kts | 245° |
| 2026-05-07 05:30 | -1.20678 | 117.03921 | 2761 ft | 181 kts | 244° |
| 2026-05-07 05:30 | -1.21213 | 117.02825 | 2516 ft | 168 kts | 248° |
| 2026-05-07 05:31 | -1.21629 | 117.01767 | 2307 ft | 162 kts | 250° |
| 2026-05-07 05:31 | -1.22051 | 117.00729 | 2091 ft | 159 kts | 247° |
| 2026-05-07 05:31 | -1.22480 | 116.99745 | 1902 ft | 149 kts | 246° |
| 2026-05-07 05:31 | -1.22874 | 116.98818 | 1723 ft | 138 kts | 246° |
| 2026-05-07 05:32 | -1.23222 | 116.97989 | 1558 ft | 123 kts | 246° |
| 2026-05-07 05:32 | -1.23540 | 116.97241 | 1400 ft | 112 kts | 247° |
| 2026-05-07 05:32 | -1.23834 | 116.96533 | 1286 ft | 110 kts | 246° |
| 2026-05-07 05:32 | -1.24129 | 116.95833 | 1136 ft | 109 kts | 246° |
| 2026-05-07 05:33 | -1.24425 | 116.95138 | 1006 ft | 109 kts | 246° |
| 2026-05-07 05:33 | -1.24722 | 116.94445 | 869 ft | 109 kts | 246° |
| 2026-05-07 05:33 | -1.25019 | 116.93745 | 743 ft | 110 kts | 247° |
| 2026-05-07 05:33 | -1.25307 | 116.93027 | 585 ft | 111 kts | 245° |
| 2026-05-07 05:34 | -1.25612 | 116.92317 | 455 ft | 111 kts | 244° |
| 2026-05-07 05:34 | -1.25907 | 116.91635 | 336 ft | 107 kts | 243° |
| 2026-05-07 05:34 | -1.26219 | 116.90922 | 173 ft | 114 kts | 246° |
| 2026-05-07 05:34 | -1.26515 | 116.90210 | 35 ft | 107 kts | 245° |
| 2026-05-07 05:35 | -1.26773 | 116.89598 | 21 ft | 83 kts | 248° |
| 2026-05-07 05:35 | -1.26973 | 116.89127 | 16 ft | 64 kts | 246° |
| 2026-05-07 05:35 | -1.27009 | 116.88952 | 16 ft | 15 kts | 323° |
| 2026-05-07 05:35 | -1.26914 | 116.88917 | 17 ft | 14 kts | 2° |
| 2026-05-07 05:36 | -1.26851 | 116.88985 | 17 ft | 15 kts | 68° |
| 2026-05-07 05:36 | -1.26812 | 116.89080 | 18 ft | 15 kts | 66° |
| 2026-05-07 05:36 | -1.26766 | 116.89176 | 18 ft | 16 kts | 63° |
| 2026-05-07 05:36 | -1.26726 | 116.89274 | 18 ft | 16 kts | 71° |
| 2026-05-07 05:37 | -1.26682 | 116.89375 | 18 ft | 16 kts | 66° |
| 2026-05-07 05:37 | -1.26639 | 116.89479 | 18 ft | 16 kts | 68° |
| 2026-05-07 05:37 | -1.26594 | 116.89585 | 18 ft | 17 kts | 68° |
| 2026-05-07 05:37 | -1.26554 | 116.89694 | 19 ft | 17 kts | 71° |
| 2026-05-07 05:38 | -1.26513 | 116.89785 | 17 ft | 8 kts | 18° |
| 2026-05-07 05:38 | -1.26461 | 116.89770 | 17 ft | 9 kts | 344° |
| 2026-05-07 05:38 | -1.26409 | 116.89802 | 17 ft | 5 kts | 22° |
| 2026-05-07 05:38 | -1.26384 | 116.89792 | 19 ft | 5 kts | 338° |
| 2026-05-07 05:39 | -1.26348 | 116.89778 | 19 ft | 4 kts | 338° |
| 2026-05-07 05:39 | -1.26341 | 116.89775 | 19 ft | 0 kts | 338° |